Port Griffith, Pennsylvania
Current Conditions -  °F | °C
As of 12:54 AM on Thursday 23 Oct 2014 (Local Time) from KAVP Reporting Station
Moderate Rain Moderate Rain  
Wind Chill:   Ceiling: 1800
Heat Index:   Visibility: 5mi
Dew Point:   Wind: 12mph
Humidity: 83%   Direction: 360°N
Pressure: 29.91"   Gusts: NA
Location:  41.2973°N, 75.7399°W
Report Text: KAVP 230454Z AUTO 36010KT 5SM RA OVC018 09/06 A2991 RMK AO2 RAB18 SLP127 P0003 T00890061 401220089
Loading
Personal Weather Stations






























Interactive Weather Map
Tropical Storm Tracking
New forecast layout! Learn more

10-Day Weather Forecast

Advertisements
Track Severe Weather on mobile